createdAt,value
2018-10-16T00:01:53.268Z,13.60
2018-10-16T00:04:21.441Z,13.60
2018-10-16T00:06:49.597Z,13.60
2018-10-16T00:09:17.738Z,13.50
2018-10-16T00:11:57.113Z,13.60
2018-10-16T00:14:25.294Z,13.50
2018-10-16T00:16:53.477Z,13.50
2018-10-16T00:19:21.589Z,13.50
2018-10-16T00:21:49.825Z,13.50
2018-10-16T00:24:17.956Z,13.50
2018-10-16T00:26:46.108Z,13.50
2018-10-16T00:29:14.267Z,13.40
2018-10-16T00:31:42.445Z,13.40
2018-10-16T00:34:10.629Z,13.40
2018-10-16T00:36:39.077Z,13.40
2018-10-16T00:39:10.909Z,13.30
2018-10-16T00:41:39.712Z,13.30
2018-10-16T00:44:08.767Z,13.30
2018-10-16T00:46:37.193Z,13.20
2018-10-16T00:49:05.389Z,13.30
2018-10-16T00:51:33.590Z,13.30
2018-10-16T00:54:01.744Z,13.20
2018-10-16T00:56:29.932Z,13.20
2018-10-16T00:58:58.084Z,13.20
2018-10-16T01:01:31.949Z,13.20
2018-10-16T01:04:02.748Z,13.20
2018-10-16T01:06:31.515Z,13.20
2018-10-16T01:08:59.722Z,13.10
2018-10-16T01:11:27.885Z,13.10
2018-10-16T01:13:57.184Z,13.10
2018-10-16T01:16:25.466Z,13.10
2018-10-16T01:18:53.608Z,13.10
2018-10-16T01:21:22.185Z,13.10
2018-10-16T01:23:50.319Z,13.10
2018-10-16T01:26:18.485Z,13.10
2018-10-16T01:28:46.747Z,13.10
2018-10-16T01:31:14.892Z,13.10
2018-10-16T01:33:43.052Z,13.00
2018-10-16T01:36:11.813Z,13.10
2018-10-16T01:38:40.021Z,13.00
2018-10-16T01:41:09.351Z,13.00
2018-10-16T01:43:37.740Z,13.00
2018-10-16T01:46:05.898Z,13.10
2018-10-16T01:48:34.072Z,13.00
2018-10-16T01:51:02.220Z,13.00
2018-10-16T01:53:30.392Z,13.00
2018-10-16T01:55:58.590Z,12.90
2018-10-16T01:58:26.906Z,13.00
2018-10-16T02:00:55.117Z,13.00
2018-10-16T02:03:23.280Z,13.00
2018-10-16T02:05:51.441Z,12.90
2018-10-16T02:08:19.619Z,12.90
2018-10-16T02:10:47.789Z,12.80
2018-10-16T02:13:15.932Z,12.80
2018-10-16T02:15:44.092Z,12.80
2018-10-16T02:18:12.273Z,12.70
2018-10-16T02:20:40.465Z,12.70
2018-10-16T02:23:08.627Z,12.60
2018-10-16T02:25:36.800Z,12.60
2018-10-16T02:28:05.045Z,12.60
2018-10-16T02:30:33.229Z,12.70
2018-10-16T02:33:01.449Z,12.70
2018-10-16T02:35:29.711Z,12.70
2018-10-16T02:37:57.885Z,12.60
2018-10-16T02:40:26.061Z,12.60
2018-10-16T02:42:54.214Z,12.60
2018-10-16T02:45:22.347Z,12.60
2018-10-16T02:47:50.559Z,12.50
2018-10-16T02:50:18.716Z,12.60
2018-10-16T02:52:46.904Z,12.50
2018-10-16T02:55:15.053Z,12.50
2018-10-16T02:57:43.295Z,12.50
2018-10-16T03:00:11.509Z,12.60
2018-10-16T03:02:39.654Z,12.50
2018-10-16T03:05:07.870Z,12.60
2018-10-16T03:07:36.064Z,12.50
2018-10-16T03:10:04.270Z,12.50
2018-10-16T03:12:32.451Z,12.60
2018-10-16T03:15:00.626Z,12.60
2018-10-16T03:17:28.777Z,12.60
2018-10-16T03:19:56.949Z,12.60
2018-10-16T03:22:25.098Z,12.60
2018-10-16T03:24:53.240Z,12.60
2018-10-16T03:27:21.417Z,12.60
2018-10-16T03:29:49.556Z,12.60
2018-10-16T03:32:17.730Z,12.60
2018-10-16T03:34:45.901Z,12.60
2018-10-16T03:37:14.088Z,12.70
2018-10-16T03:39:42.253Z,12.60
2018-10-16T03:42:10.474Z,12.60
2018-10-16T03:44:38.609Z,12.60
2018-10-16T03:47:06.766Z,12.60
2018-10-16T03:49:34.920Z,12.50
2018-10-16T03:52:03.111Z,12.60
2018-10-16T03:54:31.272Z,12.60
2018-10-16T03:56:59.465Z,12.60
2018-10-16T03:59:27.629Z,12.60
2018-10-16T04:01:55.812Z,12.70
2018-10-16T04:04:23.977Z,12.60
2018-10-16T04:06:52.258Z,12.70
2018-10-16T04:09:20.404Z,12.70
2018-10-16T04:11:48.587Z,12.70
2018-10-16T04:14:16.792Z,12.70
2018-10-16T04:16:44.944Z,12.80
2018-10-16T04:19:13.153Z,12.90
2018-10-16T04:21:45.328Z,12.90
2018-10-16T04:24:13.744Z,12.90
2018-10-16T04:26:42.105Z,12.90
2018-10-16T04:29:11.665Z,12.90
2018-10-16T04:31:39.818Z,12.90
2018-10-16T04:34:08.683Z,12.90
2018-10-16T04:36:36.833Z,13.00
2018-10-16T04:39:08.484Z,12.90
2018-10-16T04:41:36.728Z,12.90
2018-10-16T04:44:05.048Z,13.00
2018-10-16T04:46:33.222Z,13.00
2018-10-16T04:49:01.387Z,13.00
2018-10-16T04:51:29.537Z,13.00
2018-10-16T04:53:57.688Z,13.00
2018-10-16T04:56:25.865Z,13.00
2018-10-16T04:58:54.041Z,13.10
2018-10-16T05:01:22.214Z,13.10
2018-10-16T05:03:50.416Z,13.10
2018-10-16T05:06:18.634Z,13.10
2018-10-16T05:08:46.801Z,13.10
2018-10-16T05:11:15.030Z,13.20
2018-10-16T05:13:43.244Z,13.10
2018-10-16T05:16:11.512Z,13.20
2018-10-16T05:18:39.763Z,13.10
2018-10-16T05:21:08.109Z,13.10
2018-10-16T05:23:36.303Z,13.10
2018-10-16T05:26:04.517Z,13.10
2018-10-16T05:28:32.650Z,13.00
2018-10-16T05:31:00.856Z,13.00
2018-10-16T05:33:28.997Z,13.00
2018-10-16T05:35:57.331Z,12.90
2018-10-16T05:38:25.542Z,13.00
2018-10-16T05:40:53.749Z,12.90
2018-10-16T05:43:21.985Z,13.00
2018-10-16T05:45:50.165Z,13.00
2018-10-16T05:48:18.321Z,13.00
2018-10-16T05:50:46.501Z,12.90
2018-10-16T05:53:14.681Z,13.00
2018-10-16T05:55:42.845Z,13.10
2018-10-16T05:58:11.115Z,13.10
2018-10-16T06:00:47.509Z,13.10
2018-10-16T06:03:15.664Z,13.00
2018-10-16T06:05:43.890Z,13.10
2018-10-16T06:08:12.105Z,13.00
2018-10-16T06:10:40.357Z,13.10
2018-10-16T06:13:08.467Z,13.10
2018-10-16T06:15:36.626Z,13.00
2018-10-16T06:18:04.922Z,13.00
2018-10-16T06:20:33.151Z,13.10
2018-10-16T06:23:01.510Z,13.10
2018-10-16T06:25:29.746Z,13.10
2018-10-16T06:27:57.973Z,13.10
2018-10-16T06:30:26.401Z,13.10
2018-10-16T06:32:54.408Z,13.10
2018-10-16T06:35:22.590Z,13.10
2018-10-16T06:37:50.744Z,13.20
2018-10-16T06:40:18.977Z,13.10
2018-10-16T06:42:47.174Z,13.20
2018-10-16T06:45:15.331Z,13.10
2018-10-16T06:47:43.548Z,13.20
2018-10-16T06:50:11.712Z,13.20
2018-10-16T06:52:39.915Z,13.30
2018-10-16T06:55:08.231Z,13.30
2018-10-16T06:57:36.291Z,13.40
2018-10-16T07:00:05.362Z,13.50
2018-10-16T07:02:33.492Z,13.50
2018-10-16T07:05:01.714Z,13.50
2018-10-16T07:07:29.882Z,13.50
2018-10-16T07:09:58.105Z,13.40
2018-10-16T07:12:26.233Z,13.50
2018-10-16T07:14:54.527Z,13.50
2018-10-16T07:17:22.653Z,13.60
2018-10-16T07:19:50.862Z,13.70
2018-10-16T07:22:19.077Z,13.80
2018-10-16T07:24:47.324Z,13.80
2018-10-16T07:27:15.531Z,13.80
2018-10-16T07:29:43.759Z,13.80
2018-10-16T07:32:11.971Z,13.90
2018-10-16T07:34:40.153Z,13.90
2018-10-16T07:37:08.350Z,14.00
2018-10-16T07:39:36.524Z,14.10
2018-10-16T07:42:04.715Z,14.10
2018-10-16T07:44:32.992Z,14.10
2018-10-16T07:47:01.151Z,14.20
2018-10-16T07:49:29.356Z,14.30
2018-10-16T07:51:57.532Z,14.40
2018-10-16T07:54:25.749Z,14.50
2018-10-16T07:56:53.940Z,14.60
2018-10-16T07:59:22.202Z,14.70
2018-10-16T08:01:50.477Z,14.90
2018-10-16T08:04:18.699Z,14.90
2018-10-16T08:06:46.869Z,15.00
2018-10-16T08:09:16.199Z,15.10
2018-10-16T08:11:45.186Z,15.20
2018-10-16T08:14:14.249Z,15.30
2018-10-16T08:16:42.789Z,15.40
2018-10-16T08:19:11.864Z,15.50
2018-10-16T08:21:40.092Z,15.60
2018-10-16T08:24:08.648Z,15.70
2018-10-16T08:26:36.850Z,15.80
2018-10-16T08:29:05.615Z,15.80
2018-10-16T08:31:33.789Z,15.80
2018-10-16T08:34:02.010Z,15.90
2018-10-16T08:36:30.824Z,16.00
2018-10-16T08:39:04.508Z,16.10
2018-10-16T08:41:35.921Z,16.10
2018-10-16T08:44:18.165Z,16.20
2018-10-16T08:46:57.693Z,16.50
2018-10-16T08:49:37.369Z,16.50
2018-10-16T08:52:05.616Z,16.50
2018-10-16T08:54:33.810Z,16.50
2018-10-16T08:57:02.005Z,16.60
2018-10-16T08:59:30.173Z,16.80
2018-10-16T09:01:58.337Z,16.80
2018-10-16T09:04:26.508Z,16.90
2018-10-16T09:06:54.775Z,17.00
2018-10-16T09:09:22.900Z,17.20
2018-10-16T09:11:51.065Z,17.20
2018-10-16T09:14:19.308Z,17.20
2018-10-16T09:16:47.513Z,17.20
2018-10-16T09:19:15.738Z,17.40
2018-10-16T09:21:44.070Z,17.40
2018-10-16T09:24:12.270Z,17.30
2018-10-16T09:26:40.447Z,17.30
2018-10-16T09:29:08.604Z,17.50
2018-10-16T09:31:36.803Z,17.60
2018-10-16T09:34:04.966Z,17.70
2018-10-16T09:36:33.132Z,17.90
2018-10-16T09:39:01.287Z,18.00
2018-10-16T09:41:29.452Z,18.10
2018-10-16T09:43:57.605Z,18.20
2018-10-16T09:46:25.786Z,18.30
2018-10-16T09:48:53.953Z,18.60
2018-10-16T09:51:22.122Z,18.80
2018-10-16T09:53:50.274Z,18.90
2018-10-16T09:56:18.529Z,19.00
2018-10-16T09:58:46.735Z,19.10
2018-10-16T10:01:20.328Z,19.20
2018-10-16T10:03:48.774Z,19.20
2018-10-16T10:06:17.049Z,19.30
2018-10-16T10:08:45.237Z,19.50
2018-10-16T10:11:13.513Z,19.60
2018-10-16T10:13:41.629Z,19.90
2018-10-16T10:16:09.803Z,19.90
2018-10-16T10:18:38.021Z,20.00
2018-10-16T10:21:06.270Z,20.00
2018-10-16T10:23:34.438Z,20.20
2018-10-16T10:26:02.739Z,20.10
2018-10-16T10:28:30.882Z,20.30
2018-10-16T10:30:59.037Z,20.40
2018-10-16T10:33:27.233Z,20.40
2018-10-16T10:35:55.427Z,20.40
2018-10-16T10:38:23.632Z,20.50
2018-10-16T10:40:51.830Z,20.60
2018-10-16T10:43:20.000Z,20.70
2018-10-16T10:45:48.188Z,20.60
2018-10-16T10:48:16.390Z,20.60
2018-10-16T10:50:44.855Z,20.80
2018-10-16T10:53:12.885Z,20.80
2018-10-16T10:55:41.064Z,21.00
2018-10-16T10:58:09.274Z,21.20
2018-10-16T11:00:37.438Z,21.30
2018-10-16T11:03:05.739Z,21.30
2018-10-16T11:05:34.691Z,21.50
2018-10-16T11:08:03.059Z,21.60
2018-10-16T11:10:31.313Z,21.70
2018-10-16T11:12:59.492Z,21.70
2018-10-16T11:15:27.679Z,21.80
2018-10-16T11:17:55.840Z,21.80
2018-10-16T11:20:23.987Z,21.90
2018-10-16T11:22:52.176Z,22.00
2018-10-16T11:25:20.467Z,22.10
2018-10-16T11:27:48.652Z,22.10
2018-10-16T11:30:16.900Z,22.20
2018-10-16T11:32:45.042Z,22.30
2018-10-16T11:35:14.425Z,22.40
2018-10-16T11:37:42.839Z,22.40
2018-10-16T11:40:11.354Z,22.50
2018-10-16T11:42:39.929Z,22.60
2018-10-16T11:45:08.124Z,22.50
2018-10-16T11:47:36.648Z,22.40
2018-10-16T11:50:05.564Z,22.40
2018-10-16T11:52:33.645Z,22.60
2018-10-16T11:55:01.852Z,22.80
2018-10-16T11:57:30.017Z,22.70
2018-10-16T11:59:58.170Z,22.80
2018-10-16T12:02:26.417Z,22.90
2018-10-16T12:04:54.539Z,23.10
2018-10-16T12:07:22.739Z,23.20
2018-10-16T12:09:51.065Z,23.10
2018-10-16T12:12:19.229Z,23.30
2018-10-16T12:14:47.405Z,23.50
2018-10-16T12:17:56.101Z,23.50
2018-10-16T12:20:33.704Z,23.60
2018-10-16T12:23:01.874Z,23.80
2018-10-16T12:25:30.061Z,23.90
2018-10-16T12:27:58.224Z,24.10
2018-10-16T12:30:26.375Z,23.90
2018-10-16T12:32:54.656Z,24.00
2018-10-16T12:35:23.745Z,24.10
2018-10-16T12:37:51.975Z,24.00
2018-10-16T12:40:20.272Z,23.90
2018-10-16T12:42:48.482Z,24.10
2018-10-16T12:45:16.619Z,24.30
2018-10-16T12:47:44.945Z,24.20
2018-10-16T12:50:13.200Z,24.20
2018-10-16T12:52:41.337Z,24.20
2018-10-16T12:55:09.664Z,24.20
2018-10-16T12:57:37.884Z,24.20
2018-10-16T13:00:06.393Z,24.30
2018-10-16T13:02:34.482Z,24.30
2018-10-16T13:05:02.722Z,24.20
2018-10-16T13:07:35.587Z,24.30
2018-10-16T13:10:04.917Z,24.30
2018-10-16T13:12:33.129Z,24.30
2018-10-16T13:15:01.342Z,24.40
2018-10-16T13:17:29.508Z,24.50
2018-10-16T13:19:57.756Z,24.50
2018-10-16T13:22:25.916Z,24.50
2018-10-16T13:24:54.099Z,24.50
2018-10-16T13:27:22.281Z,24.70
2018-10-16T13:29:50.457Z,24.70
2018-10-16T13:32:18.625Z,24.80
2018-10-16T13:34:46.880Z,24.70
2018-10-16T13:37:15.039Z,24.70
2018-10-16T13:39:43.229Z,24.70
2018-10-16T13:42:11.442Z,24.70
2018-10-16T13:44:39.643Z,24.90
2018-10-16T13:47:07.816Z,24.90
2018-10-16T13:49:36.005Z,24.70
2018-10-16T13:52:04.269Z,24.60
2018-10-16T13:54:32.413Z,24.60
2018-10-16T13:57:00.758Z,24.60
2018-10-16T13:59:28.852Z,24.50
2018-10-16T14:01:57.078Z,24.30
2018-10-16T14:04:25.222Z,24.00
2018-10-16T14:06:53.409Z,23.90
2018-10-16T14:09:21.596Z,23.80
2018-10-16T14:11:49.967Z,23.70
2018-10-16T14:14:18.293Z,23.60
2018-10-16T14:16:46.445Z,23.50
2018-10-16T14:19:14.639Z,23.50
2018-10-16T14:21:42.864Z,23.50
2018-10-16T14:24:11.041Z,23.70
2018-10-16T14:26:39.363Z,23.70
2018-10-16T14:29:07.472Z,23.80
2018-10-16T14:31:35.684Z,23.80
2018-10-16T14:34:03.868Z,23.70
2018-10-16T14:36:32.168Z,23.50
2018-10-16T14:39:00.424Z,23.50
2018-10-16T14:41:28.551Z,23.30
2018-10-16T14:43:56.768Z,23.20
2018-10-16T14:46:24.941Z,23.20
2018-10-16T14:48:53.141Z,23.20
2018-10-16T14:51:21.297Z,23.10
2018-10-16T14:53:49.590Z,23.00
2018-10-16T14:56:17.769Z,22.90
2018-10-16T14:58:45.960Z,22.90
2018-10-16T15:01:14.118Z,22.80
2018-10-16T15:03:42.314Z,22.70
2018-10-16T15:06:10.480Z,22.80
2018-10-16T15:08:38.817Z,22.90
2018-10-16T15:11:07.078Z,22.90
2018-10-16T15:13:35.231Z,23.10
2018-10-16T15:16:03.561Z,23.10
2018-10-16T15:18:31.669Z,23.20
2018-10-16T15:20:59.864Z,23.20
2018-10-16T15:23:28.095Z,23.20
2018-10-16T15:25:56.389Z,23.20
2018-10-16T15:28:24.605Z,23.10
2018-10-16T15:30:52.864Z,23.00
2018-10-16T15:33:21.000Z,23.00
2018-10-16T15:35:49.297Z,22.90
2018-10-16T15:38:17.398Z,22.90
2018-10-16T15:40:45.563Z,22.90
2018-10-16T15:43:13.682Z,22.80
2018-10-16T15:45:41.848Z,22.80
2018-10-16T15:48:10.015Z,22.70
2018-10-16T15:50:38.169Z,22.60
2018-10-16T15:53:06.406Z,22.40
2018-10-16T15:55:34.636Z,22.30
2018-10-16T15:58:02.818Z,22.20
2018-10-16T16:00:30.937Z,22.00
2018-10-16T16:02:59.167Z,21.90
2018-10-16T16:05:27.405Z,21.80
2018-10-16T16:07:55.587Z,21.70
2018-10-16T16:10:23.750Z,21.60
2018-10-16T16:12:51.913Z,21.60
2018-10-16T16:15:20.089Z,21.50
2018-10-16T16:17:48.317Z,21.40
2018-10-16T16:20:16.633Z,21.30
2018-10-16T16:22:44.992Z,21.10
2018-10-16T16:25:14.224Z,21.00
2018-10-16T16:27:42.379Z,20.90
2018-10-16T16:30:12.522Z,20.80
2018-10-16T16:32:40.670Z,20.70
2018-10-16T16:35:08.969Z,20.60
2018-10-16T16:37:37.113Z,20.50
2018-10-16T16:40:07.216Z,20.40
2018-10-16T16:42:35.284Z,20.30
2018-10-16T16:45:03.563Z,20.30
2018-10-16T16:47:31.717Z,20.20
2018-10-16T16:49:59.942Z,20.10
2018-10-16T16:52:28.100Z,20.00
2018-10-16T16:54:56.315Z,19.90
2018-10-16T16:57:24.487Z,19.80
2018-10-16T16:59:52.676Z,19.80
2018-10-16T17:02:20.863Z,19.70
2018-10-16T17:04:49.028Z,19.70
2018-10-16T17:07:17.216Z,19.70
2018-10-16T17:09:45.337Z,19.70
2018-10-16T17:12:13.484Z,19.70
2018-10-16T17:14:41.645Z,19.60
2018-10-16T17:17:09.793Z,19.50
2018-10-16T17:19:37.983Z,19.40
2018-10-16T17:22:06.283Z,19.30
2018-10-16T17:24:34.465Z,19.30
2018-10-16T17:27:02.634Z,19.10
2018-10-16T17:29:30.776Z,19.10
2018-10-16T17:31:59.003Z,19.00
2018-10-16T17:34:27.168Z,18.90
2018-10-16T17:36:55.383Z,18.90
2018-10-16T17:39:23.548Z,18.80
2018-10-16T17:41:51.713Z,18.80
2018-10-16T17:44:19.894Z,18.70
2018-10-16T17:46:48.155Z,18.70
2018-10-16T17:49:16.342Z,18.60
2018-10-16T17:51:44.580Z,18.60
2018-10-16T17:54:12.853Z,18.40
2018-10-16T17:56:41.025Z,18.40
2018-10-16T17:59:09.204Z,18.30
2018-10-16T18:01:37.481Z,18.30
2018-10-16T18:04:05.928Z,18.30
2018-10-16T18:06:34.130Z,18.20
2018-10-16T18:09:02.383Z,18.10
2018-10-16T18:11:30.649Z,18.10
2018-10-16T18:13:59.019Z,18.00
2018-10-16T18:16:27.374Z,18.00
2018-10-16T18:18:55.586Z,18.10
2018-10-16T18:21:23.885Z,18.40
2018-10-16T18:23:52.157Z,18.40
2018-10-16T18:26:20.347Z,18.40
2018-10-16T18:28:48.712Z,18.30
2018-10-16T18:31:16.913Z,18.30
2018-10-16T18:33:45.232Z,18.20
2018-10-16T18:36:13.477Z,18.10
2018-10-16T18:38:41.752Z,18.10
2018-10-16T18:41:09.976Z,18.10
2018-10-16T18:43:38.114Z,18.10
2018-10-16T18:46:06.403Z,18.10
2018-10-16T18:48:34.605Z,18.00
2018-10-16T18:51:02.861Z,17.90
2018-10-16T18:53:30.972Z,17.90
2018-10-16T18:55:59.381Z,17.90
2018-10-16T18:58:27.677Z,17.80
2018-10-16T19:00:56.435Z,17.80
2018-10-16T19:03:24.674Z,17.80
2018-10-16T19:05:52.853Z,17.80
2018-10-16T19:08:21.105Z,17.70
2018-10-16T19:10:49.285Z,17.70
2018-10-16T19:13:17.539Z,17.70
2018-10-16T19:15:45.980Z,17.70
2018-10-16T19:18:14.143Z,17.60
2018-10-16T19:20:42.317Z,17.60
2018-10-16T19:23:10.509Z,17.60
2018-10-16T19:25:38.665Z,17.60
2018-10-16T19:28:06.864Z,17.60
2018-10-16T19:30:35.017Z,17.60
2018-10-16T19:33:03.265Z,17.70
2018-10-16T19:35:31.451Z,17.70
2018-10-16T19:37:59.688Z,17.70
2018-10-16T19:40:27.830Z,17.80
2018-10-16T19:42:55.984Z,17.80
2018-10-16T19:45:24.310Z,17.80
2018-10-16T19:47:52.491Z,17.80
2018-10-16T19:50:20.721Z,17.70
2018-10-16T19:52:48.897Z,17.90
2018-10-16T19:55:17.100Z,17.80
2018-10-16T19:57:45.217Z,17.80
2018-10-16T20:00:13.402Z,17.70
2018-10-16T20:02:41.553Z,17.60
2018-10-16T20:05:09.983Z,17.60
2018-10-16T20:07:38.227Z,17.60
2018-10-16T20:10:07.561Z,17.60
2018-10-16T20:12:35.724Z,17.60
2018-10-16T20:15:04.437Z,17.50
2018-10-16T20:17:32.605Z,17.50
2018-10-16T20:20:00.785Z,17.60
2018-10-16T20:22:28.944Z,17.60
2018-10-16T20:24:57.218Z,17.60
2018-10-16T20:27:25.307Z,17.60
2018-10-16T20:29:53.480Z,17.60
2018-10-16T20:32:21.666Z,17.50
2018-10-16T20:34:49.816Z,17.40
2018-10-16T20:37:18.063Z,17.30
2018-10-16T20:39:46.236Z,17.30
2018-10-16T20:42:14.422Z,17.30
2018-10-16T20:44:42.610Z,17.30
2018-10-16T20:47:10.777Z,17.20
2018-10-16T20:49:38.936Z,17.10
2018-10-16T20:52:07.113Z,17.00
2018-10-16T20:54:35.288Z,17.00
2018-10-16T20:57:03.453Z,16.90
2018-10-16T20:59:31.617Z,16.80
2018-10-16T21:01:59.791Z,16.70
2018-10-16T21:04:28.022Z,16.60
2018-10-16T21:06:56.244Z,16.50
2018-10-16T21:09:24.289Z,16.50
2018-10-16T21:11:52.426Z,16.50
2018-10-16T21:14:20.572Z,16.60
2018-10-16T21:16:48.733Z,16.60
2018-10-16T21:19:16.931Z,16.40
2018-10-16T21:21:45.052Z,16.40
2018-10-16T21:24:13.220Z,16.30
2018-10-16T21:26:41.349Z,16.20
2018-10-16T21:29:09.621Z,16.20
2018-10-16T21:31:37.696Z,16.20
2018-10-16T21:34:05.964Z,16.20
2018-10-16T21:36:34.127Z,16.20
2018-10-16T21:39:02.312Z,16.20
2018-10-16T21:41:30.432Z,16.30
2018-10-16T21:43:58.560Z,16.30
2018-10-16T21:46:26.693Z,16.30
2018-10-16T21:48:54.884Z,16.20
2018-10-16T21:51:23.000Z,16.10
2018-10-16T21:53:51.133Z,15.90
2018-10-16T21:56:19.326Z,15.90
2018-10-16T21:58:47.474Z,15.90
2018-10-16T22:01:15.675Z,15.90
2018-10-16T22:06:20.737Z,15.80
2018-10-16T22:08:48.892Z,15.80
2018-10-16T22:11:17.154Z,15.80
2018-10-16T22:13:45.192Z,15.80
2018-10-16T22:16:13.362Z,15.70
2018-10-16T22:18:42.060Z,15.80
2018-10-16T22:21:10.231Z,15.80
2018-10-16T22:23:38.393Z,15.80
2018-10-16T22:26:06.560Z,15.70
2018-10-16T22:28:34.755Z,15.60
2018-10-16T22:31:02.945Z,15.60
2018-10-16T22:33:31.089Z,15.60
2018-10-16T22:35:59.418Z,15.50
2018-10-16T22:38:27.620Z,15.50
2018-10-16T22:40:55.820Z,15.50
2018-10-16T22:43:23.967Z,15.40
2018-10-16T22:45:52.134Z,15.30
2018-10-16T22:48:20.292Z,15.30
2018-10-16T22:50:49.316Z,15.30
2018-10-16T22:53:17.528Z,15.30
2018-10-16T22:55:45.665Z,15.40
2018-10-16T22:58:13.848Z,15.60
2018-10-16T23:00:42.073Z,15.70
2018-10-16T23:03:10.328Z,15.80
2018-10-16T23:05:38.501Z,15.80
2018-10-16T23:08:06.646Z,15.80
2018-10-16T23:10:34.824Z,15.80
2018-10-16T23:13:06.701Z,15.70
2018-10-16T23:15:35.166Z,15.50
2018-10-16T23:18:03.949Z,15.40
2018-10-16T23:20:32.593Z,15.40
2018-10-16T23:23:00.772Z,15.40
2018-10-16T23:25:28.988Z,15.30
2018-10-16T23:27:57.160Z,15.20
2018-10-16T23:30:25.423Z,15.10
2018-10-16T23:32:53.604Z,15.10
2018-10-16T23:35:21.808Z,15.20
2018-10-16T23:37:49.961Z,15.20
2018-10-16T23:40:18.170Z,15.20
2018-10-16T23:42:46.312Z,15.10
2018-10-16T23:45:15.034Z,15.10
2018-10-16T23:47:43.258Z,15.00
2018-10-16T23:50:11.429Z,15.00
2018-10-16T23:52:39.619Z,15.10
2018-10-16T23:55:08.987Z,15.00
2018-10-16T23:57:37.101Z,15.00
